Time;durP1;ratioP1;P1;durP2;ratioP2;P2;SDS_P1;SDS_P2;PMS_P1;PMS_P2;Temp;Humidity;BMP_temperature;BMP_pressure;BME280_temperature;BME280_humidity;BME280_pressure;Samples;Min_cycle;Max_cycle;Signal;HPM_P1;HPM_P2
2022/11/03 00:01:36;;;;;;;;;;;11.30;99.90;;;;;;5108661;28;1199;-67
2022/11/03 00:04:02;;;;;;;;;;;11.30;99.90;;;;;;5109262;28;1156;-67
2022/11/03 00:06:28;;;;;;;;;;;11.30;99.90;;;;;;5109023;28;1205;-67
2022/11/03 00:08:56;;;;;;;;;;;11.30;99.90;;;;;;5107994;28;1101;-67
2022/11/03 00:11:22;;;;;;;;;;;11.40;99.90;;;;;;5109085;28;1901;-67
2022/11/03 00:13:47;;;;;;;;;;;11.30;99.90;;;;;;5108680;28;1116;-67
2022/11/03 00:16:13;;;;;;;;;;;11.30;99.90;;;;;;5107978;28;1081;-68
2022/11/03 00:18:38;;;;;;;;;;;11.30;99.90;;;;;;5109219;28;1152;-67
2022/11/03 00:21:06;;;;;;;;;;;11.30;99.90;;;;;;5090808;28;1148;-67
2022/11/03 00:23:33;;;;;;;;;;;11.30;99.90;;;;;;5107517;28;1166;-67
2022/11/03 00:26:06;;;;;;;;;;;11.30;99.90;;;;;;5109112;28;1187;-67
2022/11/03 00:28:32;;;;;;;;;;;11.30;99.90;;;;;;5108758;28;1104;-67
2022/11/03 00:30:59;;;;;;;;;;;11.40;99.90;;;;;;5107589;28;1495;-68
2022/11/03 00:33:26;;;;;;;;;;;11.40;99.90;;;;;;5108660;28;1909;-67
2022/11/03 00:35:57;;;;;;;;;;;11.40;99.90;;;;;;5108152;28;1104;-67
2022/11/03 00:38:23;;;;;;;;;;;11.40;99.90;;;;;;5107699;28;1227;-67
2022/11/03 00:40:53;;;;;;;;;;;11.40;99.90;;;;;;5108142;28;1139;-67
2022/11/03 00:43:18;;;;;;;;;;;11.40;99.90;;;;;;5111155;28;1310;-67
2022/11/03 00:45:44;;;;;;;;;;;11.30;99.90;;;;;;5112342;28;1127;-67
2022/11/03 00:50:59;;;;;;;;;;;11.30;99.90;;;;;;5111220;28;1386;-67
2022/11/03 00:53:24;;;;;;;;;;;11.20;99.90;;;;;;5112248;28;1975;-67
2022/11/03 00:55:50;;;;;;;;;;;11.20;99.90;;;;;;5112875;28;1166;-67
2022/11/03 00:58:15;;;;;;;;;;;11.20;99.90;;;;;;5111528;28;1148;-67
2022/11/03 01:00:41;;;;;;;;;;;11.20;99.90;;;;;;5112241;28;1104;-67
2022/11/03 01:03:07;;;;;;;;;;;11.20;99.90;;;;;;5112055;28;1064;-67
2022/11/03 01:08:16;;;;;;;;;;;11.20;99.90;;;;;;5111226;28;1164;-67
2022/11/03 01:11:42;;;;;;;;;;;11.20;99.90;;;;;;5110682;28;1119;-67
2022/11/03 01:13:27;;;;;;;;;;;11.20;99.90;;;;;;5111230;28;1933;-67
2022/11/03 01:15:57;;;;;;;;;;;11.20;99.90;;;;;;5111348;28;1191;-67
2022/11/03 01:18:23;;;;;;;;;;;11.20;99.90;;;;;;5112132;28;1093;-67
2022/11/03 01:20:53;;;;;;;;;;;11.20;99.90;;;;;;5111327;28;1131;-67
2022/11/03 01:23:18;;;;;;;;;;;11.10;99.90;;;;;;5111644;28;1241;-67
2022/11/03 01:25:44;;;;;;;;;;;11.10;99.90;;;;;;5110867;28;1144;-67
2022/11/03 01:28:10;;;;;;;;;;;11.10;99.90;;;;;;5111615;28;1136;-67
2022/11/03 01:30:35;;;;;;;;;;;11.00;99.90;;;;;;5110844;28;1435;-67
2022/11/03 01:33:01;;;;;;;;;;;11.00;99.90;;;;;;5110780;28;1906;-67
2022/11/03 01:35:26;;;;;;;;;;;11.00;99.90;;;;;;5111647;28;1155;-67
2022/11/03 01:37:52;;;;;;;;;;;11.00;99.90;;;;;;5111175;28;1194;-67
2022/11/03 01:40:18;;;;;;;;;;;11.00;99.90;;;;;;5110560;28;1207;-67
2022/11/03 01:42:44;;;;;;;;;;;11.00;99.90;;;;;;5111032;28;1193;-67
2022/11/03 01:45:09;;;;;;;;;;;10.90;99.90;;;;;;5111093;28;1136;-67
2022/11/03 01:47:35;;;;;;;;;;;10.90;99.90;;;;;;5091946;28;2097;-67
2022/11/03 01:50:09;;;;;;;;;;;10.90;99.90;;;;;;5111597;28;1033;-67
2022/11/03 01:52:39;;;;;;;;;;;10.90;99.90;;;;;;5108481;28;1997;-67
2022/11/03 01:55:07;;;;;;;;;;;10.90;99.90;;;;;;5109887;28;1120;-67
2022/11/03 01:57:35;;;;;;;;;;;10.90;99.90;;;;;;5111303;28;1203;-67
2022/11/03 02:00:01;;;;;;;;;;;10.90;99.90;;;;;;5110521;28;1178;-67
2022/11/03 02:02:27;;;;;;;;;;;10.90;99.90;;;;;;5110093;28;1195;-67
2022/11/03 02:04:53;;;;;;;;;;;10.90;99.90;;;;;;5111043;28;1186;-67
2022/11/03 02:07:31;;;;;;;;;;;11.00;99.90;;;;;;5110642;28;1124;-67
2022/11/03 02:09:57;;;;;;;;;;;11.00;99.90;;;;;;5109816;28;1080;-67
2022/11/03 02:12:22;;;;;;;;;;;10.90;99.90;;;;;;5092852;28;2030;-67
2022/11/03 02:14:52;;;;;;;;;;;10.90;99.90;;;;;;5091338;28;1682;-67
2022/11/03 02:17:19;;;;;;;;;;;11.00;99.90;;;;;;5092235;28;1066;-67
2022/11/03 02:19:44;;;;;;;;;;;10.90;99.90;;;;;;5110937;28;1092;-67
2022/11/03 02:22:19;;;;;;;;;;;10.90;99.90;;;;;;5109531;28;1176;-67
2022/11/03 02:24:49;;;;;;;;;;;10.90;99.90;;;;;;5110624;28;982;-67
2022/11/03 02:27:15;;;;;;;;;;;10.90;99.90;;;;;;5110238;28;1167;-67
2022/11/03 02:29:41;;;;;;;;;;;10.90;99.90;;;;;;5109496;28;1374;-67
2022/11/03 02:32:14;;;;;;;;;;;10.90;99.90;;;;;;5110343;28;1991;-67
2022/11/03 02:34:46;;;;;;;;;;;10.90;99.90;;;;;;5088696;28;1168;-67
2022/11/03 02:37:20;;;;;;;;;;;10.80;99.90;;;;;;5109397;28;1084;-67
2022/11/03 02:39:48;;;;;;;;;;;10.80;99.90;;;;;;5110360;28;1218;-67
2022/11/03 02:42:15;;;;;;;;;;;10.70;99.90;;;;;;5110101;28;1120;-67
2022/11/03 02:44:42;;;;;;;;;;;10.70;99.90;;;;;;5108852;28;1142;-67
2022/11/03 02:47:09;;;;;;;;;;;10.60;99.90;;;;;;5110162;28;1132;-67
2022/11/03 02:49:45;;;;;;;;;;;10.60;99.90;;;;;;5110444;28;1152;-67
2022/11/03 02:52:32;;;;;;;;;;;10.60;99.90;;;;;;5108648;28;1933;-67
2022/11/03 02:55:00;;;;;;;;;;;10.50;99.90;;;;;;5109961;28;1132;-67
2022/11/03 02:57:26;;;;;;;;;;;10.50;99.90;;;;;;5109270;28;1157;-67
2022/11/03 02:59:54;;;;;;;;;;;10.50;99.90;;;;;;5109609;28;1140;-67
2022/11/03 03:02:23;;;;;;;;;;;10.50;99.90;;;;;;5087861;28;1199;-67
2022/11/03 03:04:52;;;;;;;;;;;10.50;99.90;;;;;;5106716;28;1093;-67
2022/11/03 03:07:20;;;;;;;;;;;10.40;99.90;;;;;;5091459;28;1100;-67
2022/11/03 03:09:49;;;;;;;;;;;10.40;99.90;;;;;;5109886;28;1093;-67
2022/11/03 03:12:17;;;;;;;;;;;10.40;99.90;;;;;;5108441;28;1921;-67
2022/11/03 03:14:44;;;;;;;;;;;10.40;99.90;;;;;;5108058;28;1101;-67
2022/11/03 03:17:24;;;;;;;;;;;10.40;99.90;;;;;;5109198;28;1281;-67
2022/11/03 03:20:17;;;;;;;;;;;10.40;99.90;;;;;;5104872;28;1338;-67
2022/11/03 03:22:49;;;;;;;;;;;10.40;99.90;;;;;;5107820;28;1271;-67
2022/11/03 03:25:17;;;;;;;;;;;10.40;99.90;;;;;;5104659;28;1208;-67
2022/11/03 03:27:46;;;;;;;;;;;10.50;99.90;;;;;;5108229;28;1160;-67
2022/11/03 03:30:12;;;;;;;;;;;10.50;99.90;;;;;;5109010;28;1342;-67
2022/11/03 03:32:39;;;;;;;;;;;10.50;99.90;;;;;;5108283;28;1970;-67
2022/11/03 03:35:07;;;;;;;;;;;10.40;99.90;;;;;;5108980;28;1211;-67
2022/11/03 03:37:35;;;;;;;;;;;10.40;99.90;;;;;;5108903;28;1227;-67
2022/11/03 03:40:02;;;;;;;;;;;10.50;99.90;;;;;;5108997;28;1147;-67
2022/11/03 03:42:29;;;;;;;;;;;10.50;99.90;;;;;;5109409;28;1100;-67
2022/11/03 03:44:55;;;;;;;;;;;10.50;99.90;;;;;;5109497;28;1111;-67
2022/11/03 03:47:23;;;;;;;;;;;10.50;99.90;;;;;;5108507;28;1146;-67
2022/11/03 03:49:48;;;;;;;;;;;10.50;99.90;;;;;;5107829;28;1108;-67
2022/11/03 03:52:14;;;;;;;;;;;10.50;99.90;;;;;;5108943;28;1922;-67
2022/11/03 03:54:40;;;;;;;;;;;10.40;99.90;;;;;;5108344;28;1114;-67
2022/11/03 03:57:08;;;;;;;;;;;10.40;99.90;;;;;;5108293;28;1391;-67
2022/11/03 03:59:34;;;;;;;;;;;10.40;99.90;;;;;;5109295;28;1164;-67
2022/11/03 04:02:00;;;;;;;;;;;10.40;99.90;;;;;;5108870;28;1117;-67
2022/11/03 04:04:25;;;;;;;;;;;10.30;99.90;;;;;;5090264;28;1226;-67
2022/11/03 04:07:45;;;;;;;;;;;10.40;99.90;;;;;;5108933;28;1275;-67
2022/11/03 04:09:37;;;;;;;;;;;10.30;99.90;;;;;;5108253;28;1121;-66
2022/11/03 04:23:11;;;;;;;;;;;10.30;99.90;;;;;;5110047;28;1372;-67
2022/11/03 04:25:36;;;;;;;;;;;10.30;99.90;;;;;;5113072;28;1147;-67
2022/11/03 04:28:11;;;;;;;;;;;10.30;99.90;;;;;;5112572;28;1116;-66
2022/11/03 04:30:36;;;;;;;;;;;10.30;99.90;;;;;;5093464;28;1422;-67
2022/11/03 04:33:04;;;;;;;;;;;10.30;99.90;;;;;;5112899;28;1905;-67
2022/11/03 04:35:29;;;;;;;;;;;10.20;99.90;;;;;;5111730;28;1163;-67
2022/11/03 04:37:58;;;;;;;;;;;10.20;99.90;;;;;;5112674;28;1108;-67
2022/11/03 04:40:24;;;;;;;;;;;10.20;99.90;;;;;;5112349;28;1084;-67
2022/11/03 04:42:49;;;;;;;;;;;10.20;99.90;;;;;;5111420;28;1163;-67
2022/11/03 04:45:22;;;;;;;;;;;10.20;99.90;;;;;;5111123;28;1333;-67
2022/11/03 04:47:48;;;;;;;;;;;10.20;99.90;;;;;;5111664;28;1134;-66
2022/11/03 04:50:16;;;;;;;;;;;10.20;99.90;;;;;;5111599;28;1191;-67
2022/11/03 04:52:41;;;;;;;;;;;10.10;99.90;;;;;;5111410;28;1910;-67
2022/11/03 04:55:12;;;;;;;;;;;10.10;99.90;;;;;;5112227;28;1196;-67
2022/11/03 04:57:39;;;;;;;;;;;10.00;99.90;;;;;;5110611;27;1230;-67
2022/11/03 05:00:06;;;;;;;;;;;10.10;99.90;;;;;;5111768;28;1123;-67
2022/11/03 05:02:32;;;;;;;;;;;10.10;99.90;;;;;;5092222;28;1243;-67
2022/11/03 05:04:58;;;;;;;;;;;10.10;99.90;;;;;;5110941;28;1250;-67
2022/11/03 05:07:29;;;;;;;;;;;10.10;99.90;;;;;;5111778;28;1360;-67
2022/11/03 05:09:55;;;;;;;;;;;10.10;99.90;;;;;;5112013;28;1152;-67
2022/11/03 05:12:21;;;;;;;;;;;10.10;99.90;;;;;;5111024;28;1914;-67
2022/11/03 05:14:47;;;;;;;;;;;10.10;99.90;;;;;;5111497;28;1096;-67
2022/11/03 05:17:21;;;;;;;;;;;10.10;99.90;;;;;;5111974;28;1179;-67
2022/11/03 05:19:47;;;;;;;;;;;10.10;99.90;;;;;;5110884;28;1167;-67
2022/11/03 05:22:16;;;;;;;;;;;10.10;99.90;;;;;;5111780;28;1267;-67
2022/11/03 05:24:42;;;;;;;;;;;10.10;99.90;;;;;;5108643;28;1122;-67
2022/11/03 05:27:11;;;;;;;;;;;10.10;99.90;;;;;;5110583;28;1223;-67
2022/11/03 05:29:37;;;;;;;;;;;10.10;99.90;;;;;;5111026;28;1227;-67
2022/11/03 05:32:08;;;;;;;;;;;10.10;99.90;;;;;;5110565;28;1902;-67
2022/11/03 05:34:36;;;;;;;;;;;10.10;99.90;;;;;;5110916;28;962;-67
2022/11/03 05:37:20;;;;;;;;;;;10.10;99.90;;;;;;5111712;28;1191;-67
2022/11/03 05:39:47;;;;;;;;;;;10.20;99.90;;;;;;5110504;28;1144;-66
2022/11/03 05:42:22;;;;;;;;;;;10.20;99.90;;;;;;5110682;28;1132;-67
2022/11/03 05:44:49;;;;;;;;;;;10.20;99.90;;;;;;5111432;28;1190;-67
2022/11/03 05:47:24;;;;;;;;;;;10.10;99.90;;;;;;5110625;28;1163;-67
2022/11/03 05:49:53;;;;;;;;;;;10.20;99.90;;;;;;5109606;28;1097;-67
2022/11/03 05:52:21;;;;;;;;;;;10.20;99.90;;;;;;5110901;28;1956;-67
2022/11/03 05:54:47;;;;;;;;;;;10.20;99.90;;;;;;5110471;28;1124;-67
2022/11/03 05:57:14;;;;;;;;;;;10.20;99.90;;;;;;5110971;28;1076;-67
2022/11/03 05:59:39;;;;;;;;;;;10.20;99.90;;;;;;5110732;28;1097;-67
2022/11/03 06:02:20;;;;;;;;;;;10.20;99.90;;;;;;5092390;28;1147;-67
2022/11/03 06:04:48;;;;;;;;;;;10.20;99.90;;;;;;5110703;28;1187;-67
2022/11/03 06:07:19;;;;;;;;;;;10.20;99.90;;;;;;5109608;28;1136;-67
2022/11/03 06:09:45;;;;;;;;;;;10.20;99.90;;;;;;5110519;28;1156;-67
2022/11/03 06:12:13;;;;;;;;;;;10.20;99.90;;;;;;5110492;28;1971;-67
2022/11/03 06:14:39;;;;;;;;;;;10.20;99.90;;;;;;5109783;28;1104;-67
2022/11/03 06:17:06;;;;;;;;;;;10.20;99.90;;;;;;5110510;28;1092;-67
2022/11/03 06:19:34;;;;;;;;;;;10.20;99.90;;;;;;5110272;28;1137;-67
2022/11/03 06:22:05;;;;;;;;;;;10.20;99.90;;;;;;5109668;28;1909;-67
2022/11/03 06:24:32;;;;;;;;;;;10.20;99.90;;;;;;5092145;28;1136;-67
2022/11/03 06:26:58;;;;;;;;;;;10.20;99.90;;;;;;5109945;28;1201;-67
2022/11/03 06:29:24;;;;;;;;;;;10.20;99.90;;;;;;5109798;28;1240;-67
2022/11/03 06:31:51;;;;;;;;;;;10.20;99.90;;;;;;5110367;28;1950;-67
2022/11/03 06:34:21;;;;;;;;;;;10.20;99.90;;;;;;5109408;28;1042;-67
2022/11/03 06:36:47;;;;;;;;;;;10.20;99.90;;;;;;5109849;28;1152;-67
2022/11/03 06:39:17;;;;;;;;;;;10.20;99.90;;;;;;5109840;28;1364;-67
2022/11/03 06:41:42;;;;;;;;;;;10.20;99.90;;;;;;5109810;28;1179;-67
2022/11/03 06:44:18;;;;;;;;;;;10.20;99.90;;;;;;5090917;28;1201;-67
2022/11/03 06:46:44;;;;;;;;;;;10.20;99.90;;;;;;5109984;28;1116;-67
2022/11/03 06:49:24;;;;;;;;;;;10.20;99.90;;;;;;5109312;28;1159;-67
2022/11/03 06:51:49;;;;;;;;;;;10.20;99.90;;;;;;5109287;28;1917;-67
2022/11/03 06:54:15;;;;;;;;;;;10.20;99.90;;;;;;5110141;28;1080;-67
2022/11/03 06:56:41;;;;;;;;;;;10.20;99.90;;;;;;5109058;28;1108;-67
2022/11/03 06:59:08;;;;;;;;;;;10.20;99.90;;;;;;5109834;28;1084;-67
2022/11/03 07:01:34;;;;;;;;;;;10.20;99.90;;;;;;5109650;28;1211;-67
2022/11/03 07:04:02;;;;;;;;;;;10.20;99.90;;;;;;5106312;28;1761;-67
2022/11/03 07:06:30;;;;;;;;;;;10.20;99.90;;;;;;5107942;28;1097;-67
2022/11/03 07:08:58;;;;;;;;;;;10.30;99.90;;;;;;5090264;28;1190;-67
2022/11/03 07:11:26;;;;;;;;;;;10.30;99.90;;;;;;5108565;28;1283;-67
2022/11/03 07:13:54;;;;;;;;;;;10.30;99.90;;;;;;5109437;28;1905;-67
2022/11/03 07:16:21;;;;;;;;;;;10.30;99.90;;;;;;5109720;28;1139;-67
2022/11/03 07:18:46;;;;;;;;;;;10.30;99.90;;;;;;5108031;28;1155;-67
2022/11/03 07:21:31;;;;;;;;;;;10.30;99.90;;;;;;5109591;28;1100;-67
2022/11/03 07:23:59;;;;;;;;;;;10.40;99.90;;;;;;5109465;28;1088;-67
2022/11/03 07:26:25;;;;;;;;;;;10.40;99.90;;;;;;5108634;28;1112;-67
2022/11/03 07:28:51;;;;;;;;;;;10.40;99.90;;;;;;5089975;28;1194;-67
2022/11/03 07:31:19;;;;;;;;;;;10.50;99.90;;;;;;5108723;28;1501;-68
2022/11/03 07:33:44;;;;;;;;;;;10.50;99.90;;;;;;5108583;28;1975;-67
2022/11/03 07:36:12;;;;;;;;;;;10.50;99.90;;;;;;5108829;28;1238;-67
2022/11/03 07:38:38;;;;;;;;;;;10.60;99.90;;;;;;5108125;28;1062;-68
2022/11/03 07:41:05;;;;;;;;;;;10.60;99.90;;;;;;5108554;28;1243;-67
2022/11/03 07:43:32;;;;;;;;;;;10.60;99.90;;;;;;5109362;28;1243;-67
2022/11/03 07:45:59;;;;;;;;;;;10.70;99.90;;;;;;5108304;28;1234;-67
2022/11/03 07:48:32;;;;;;;;;;;10.70;99.90;;;;;;5108634;28;1206;-67
2022/11/03 07:51:00;;;;;;;;;;;10.80;99.90;;;;;;5100420;28;1427;-67
2022/11/03 07:53:29;;;;;;;;;;;10.80;99.90;;;;;;5112470;28;1921;-68
2022/11/03 07:55:55;;;;;;;;;;;10.90;99.90;;;;;;5113429;28;1076;-67
2022/11/03 07:58:23;;;;;;;;;;;10.90;99.90;;;;;;5113563;28;1054;-68
2022/11/03 08:00:49;;;;;;;;;;;11.00;99.90;;;;;;5112897;28;1065;-67
2022/11/03 08:03:26;;;;;;;;;;;11.00;99.90;;;;;;5112870;28;1113;-68
2022/11/03 08:05:52;;;;;;;;;;;11.00;99.90;;;;;;5113210;28;1246;-68
2022/11/03 08:08:17;;;;;;;;;;;11.10;99.90;;;;;;5112195;28;1077;-68
2022/11/03 08:10:43;;;;;;;;;;;11.10;99.90;;;;;;5091326;28;3476;-67
2022/11/03 08:13:09;;;;;;;;;;;11.20;99.90;;;;;;5108860;28;3522;-68
2022/11/03 08:15:34;;;;;;;;;;;11.20;99.90;;;;;;5112371;28;1195;-67
2022/11/03 08:18:00;;;;;;;;;;;11.30;99.90;;;;;;5112086;28;3475;-68
2022/11/03 08:20:25;;;;;;;;;;;11.40;99.90;;;;;;5108315;28;1222;-67
2022/11/03 08:22:51;;;;;;;;;;;11.40;99.90;;;;;;5110882;28;1175;-67
2022/11/03 08:25:17;;;;;;;;;;;11.50;99.90;;;;;;5090230;28;1094;-67
2022/11/03 08:27:42;;;;;;;;;;;11.60;99.90;;;;;;5110259;28;1286;-68
2022/11/03 08:30:08;;;;;;;;;;;11.70;99.90;;;;;;5112275;28;1354;-68
2022/11/03 08:32:34;;;;;;;;;;;11.70;99.90;;;;;;5112231;28;1905;-68
2022/11/03 08:35:00;;;;;;;;;;;11.80;99.90;;;;;;5112194;28;1151;-68
2022/11/03 08:37:25;;;;;;;;;;;11.90;99.90;;;;;;5112479;28;1226;-68
2022/11/03 08:39:51;;;;;;;;;;;12.00;99.90;;;;;;5112543;28;1167;-68
2022/11/03 08:42:17;;;;;;;;;;;12.10;99.90;;;;;;5112314;28;1136;-68
2022/11/03 08:44:42;;;;;;;;;;;12.20;99.90;;;;;;5112923;28;1225;-68
2022/11/03 08:47:08;;;;;;;;;;;12.20;99.90;;;;;;5111706;28;1156;-68
2022/11/03 08:49:34;;;;;;;;;;;12.30;99.90;;;;;;5111799;28;1116;-68
2022/11/03 08:51:59;;;;;;;;;;;12.30;99.90;;;;;;5112052;28;1981;-68
2022/11/03 08:54:25;;;;;;;;;;;12.40;99.90;;;;;;5110824;28;1103;-68
2022/11/03 08:56:50;;;;;;;;;;;12.40;99.90;;;;;;5093048;28;1101;-68
2022/11/03 08:59:17;;;;;;;;;;;12.40;99.90;;;;;;5112582;28;1044;-68
2022/11/03 09:01:43;;;;;;;;;;;12.40;99.90;;;;;;5111913;28;1159;-68
2022/11/03 09:04:09;;;;;;;;;;;12.40;99.90;;;;;;5092115;28;1048;-69
2022/11/03 09:06:35;;;;;;;;;;;12.40;99.90;;;;;;5093917;28;1136;-68
2022/11/03 09:09:00;;;;;;;;;;;12.40;99.90;;;;;;5111464;28;1150;-67
2022/11/03 09:11:26;;;;;;;;;;;12.40;99.90;;;;;;5111341;28;1123;-68
2022/11/03 09:13:51;;;;;;;;;;;12.40;99.90;;;;;;5111791;28;1910;-69
2022/11/03 09:16:17;;;;;;;;;;;12.40;99.90;;;;;;5111435;28;1108;-69
2022/11/03 09:18:44;;;;;;;;;;;12.40;99.90;;;;;;5111226;28;1088;-68
2022/11/03 09:21:09;;;;;;;;;;;12.40;99.90;;;;;;5111885;28;1112;-68
2022/11/03 09:23:35;;;;;;;;;;;12.40;99.90;;;;;;5109380;28;1209;-68
2022/11/03 09:26:01;;;;;;;;;;;12.40;99.90;;;;;;5111032;28;1104;-68
2022/11/03 09:28:26;;;;;;;;;;;12.40;99.90;;;;;;5110821;28;1282;-68
2022/11/03 09:30:52;;;;;;;;;;;12.50;99.90;;;;;;5109571;28;1306;-68
2022/11/03 09:33:18;;;;;;;;;;;12.60;99.90;;;;;;5111169;28;1914;-68
2022/11/03 09:35:43;;;;;;;;;;;12.70;99.90;;;;;;5111971;28;1186;-70
2022/11/03 09:38:09;;;;;;;;;;;12.70;99.90;;;;;;5110633;28;1180;-70
2022/11/03 09:40:34;;;;;;;;;;;12.80;99.90;;;;;;5111249;28;1180;-70
2022/11/03 09:43:00;;;;;;;;;;;12.80;99.90;;;;;;5111794;28;1176;-70
2022/11/03 09:45:26;;;;;;;;;;;12.90;99.90;;;;;;5110671;28;1123;-70
2022/11/03 09:47:51;;;;;;;;;;;13.00;99.90;;;;;;5111294;28;1270;-70
2022/11/03 09:50:18;;;;;;;;;;;13.00;99.90;;;;;;5110720;28;1124;-70
2022/11/03 09:52:45;;;;;;;;;;;13.10;99.90;;;;;;5093402;28;3694;-71
2022/11/03 09:55:14;;;;;;;;;;;13.10;99.90;;;;;;5109454;28;1168;-71
2022/11/03 09:57:40;;;;;;;;;;;13.20;99.90;;;;;;5110913;28;1104;-68
2022/11/03 10:00:12;;;;;;;;;;;13.20;99.90;;;;;;5090990;28;1129;-68
2022/11/03 10:02:42;;;;;;;;;;;13.30;99.90;;;;;;5107256;28;1300;-68
2022/11/03 10:05:11;;;;;;;;;;;13.40;99.90;;;;;;5109768;28;1431;-68
2022/11/03 10:07:36;;;;;;;;;;;13.40;99.90;;;;;;5109188;28;1212;-68
2022/11/03 10:10:03;;;;;;;;;;;13.50;99.90;;;;;;5110654;28;1276;-68
2022/11/03 10:12:30;;;;;;;;;;;13.50;99.90;;;;;;5110312;28;1941;-68
2022/11/03 10:14:56;;;;;;;;;;;13.60;99.90;;;;;;5103960;28;3692;-68
2022/11/03 10:17:25;;;;;;;;;;;13.70;99.90;;;;;;5106396;28;3775;-69
2022/11/03 10:19:51;;;;;;;;;;;13.90;99.90;;;;;;5110424;28;1182;-68
2022/11/03 10:22:18;;;;;;;;;;;14.00;99.90;;;;;;5109301;28;3662;-68
2022/11/03 10:24:44;;;;;;;;;;;14.20;99.90;;;;;;5103763;28;1173;-69
2022/11/03 10:27:24;;;;;;;;;;;14.50;99.90;;;;;;5107358;28;983;-68
2022/11/03 10:30:04;;;;;;;;;;;15.10;99.90;;;;;;5108848;28;2488;-68
2022/11/03 10:32:32;;;;;;;;;;;15.80;99.90;;;;;;5087301;28;3704;-69
2022/11/03 10:34:58;;;;;;;;;;;15.80;99.90;;;;;;5105011;28;3519;-69
2022/11/03 10:37:24;;;;;;;;;;;15.50;99.90;;;;;;5109917;28;3528;-69
2022/11/03 10:39:52;;;;;;;;;;;15.20;99.90;;;;;;5110370;28;1175;-69
2022/11/03 10:42:20;;;;;;;;;;;15.00;99.90;;;;;;5104306;28;1179;-68
2022/11/03 10:44:46;;;;;;;;;;;15.30;99.90;;;;;;5099428;28;1226;-69
2022/11/03 10:47:25;;;;;;;;;;;14.70;99.90;;;;;;5109483;28;1113;-68
2022/11/03 10:49:51;;;;;;;;;;;14.60;99.90;;;;;;5109540;28;1096;-69
2022/11/03 10:52:19;;;;;;;;;;;14.60;99.90;;;;;;5104039;28;3700;-69
2022/11/03 10:54:46;;;;;;;;;;;14.70;99.90;;;;;;5100912;28;3666;-69
2022/11/03 10:57:12;;;;;;;;;;;14.70;99.90;;;;;;5107551;28;1185;-69
2022/11/03 10:59:38;;;;;;;;;;;14.70;99.90;;;;;;5108390;28;4086;-69
2022/11/03 11:02:13;;;;;;;;;;;14.90;99.90;;;;;;5109711;28;1112;-69
2022/11/03 11:04:39;;;;;;;;;;;15.00;99.90;;;;;;5109643;28;1315;-69
2022/11/03 11:07:13;;;;;;;;;;;15.40;99.90;;;;;;5099978;28;1134;-69
2022/11/03 11:09:39;;;;;;;;;;;15.60;99.90;;;;;;5096381;28;1441;-69
2022/11/03 11:12:15;;;;;;;;;;;15.70;99.90;;;;;;5108952;28;3913;-68
2022/11/03 11:14:51;;;;;;;;;;;15.60;99.90;;;;;;5109463;28;1120;-69
2022/11/03 11:17:35;;;;;;;;;;;15.60;99.90;;;;;;5108637;28;1120;-69
2022/11/03 11:20:17;;;;;;;;;;;15.50;99.90;;;;;;5109841;28;1366;-69
2022/11/03 11:22:43;;;;;;;;;;;15.60;99.90;;;;;;5109251;28;1132;-69
2022/11/03 11:25:08;;;;;;;;;;;15.80;99.90;;;;;;5108973;28;1092;-69
2022/11/03 11:27:34;;;;;;;;;;;15.90;99.90;;;;;;5109129;28;1136;-69
2022/11/03 11:30:03;;;;;;;;;;;15.90;99.90;;;;;;5107841;28;1222;-69
2022/11/03 11:32:35;;;;;;;;;;;15.80;99.90;;;;;;5108838;28;1913;-69
2022/11/03 11:35:01;;;;;;;;;;;15.80;99.90;;;;;;5109161;28;1107;-69
2022/11/03 11:37:26;;;;;;;;;;;15.80;99.90;;;;;;5108674;28;1109;-69
2022/11/03 11:39:52;;;;;;;;;;;16.20;99.90;;;;;;5110088;28;1097;-69
2022/11/03 11:42:19;;;;;;;;;;;17.00;99.90;;;;;;5109694;28;1128;-69
2022/11/03 11:44:46;;;;;;;;;;;17.80;99.90;;;;;;5108117;28;1138;-69
2022/11/03 11:47:20;;;;;;;;;;;18.10;99.90;;;;;;5109440;28;1164;-69
2022/11/03 11:49:45;;;;;;;;;;;18.00;99.90;;;;;;5109696;28;1120;-69
2022/11/03 11:52:11;;;;;;;;;;;17.60;99.90;;;;;;5107429;28;1914;-69
2022/11/03 11:54:40;;;;;;;;;;;17.20;99.90;;;;;;5109227;28;1120;-69
2022/11/03 11:57:16;;;;;;;;;;;16.90;99.90;;;;;;5108414;28;1085;-69
2022/11/03 11:59:43;;;;;;;;;;;16.80;99.90;;;;;;5108413;28;1096;-69
2022/11/03 12:02:16;;;;;;;;;;;16.70;99.90;;;;;;5109267;28;1106;-69
2022/11/03 12:04:45;;;;;;;;;;;16.60;99.90;;;;;;5109212;28;1412;-69
2022/11/03 12:07:11;;;;;;;;;;;16.50;99.90;;;;;;5108318;28;1108;-69
2022/11/03 12:09:38;;;;;;;;;;;16.30;99.90;;;;;;5109069;28;1104;-69
2022/11/03 12:12:04;;;;;;;;;;;16.20;99.90;;;;;;5104531;28;3725;-69
2022/11/03 12:14:30;;;;;;;;;;;16.00;99.90;;;;;;5104247;28;3638;-69
2022/11/03 12:16:57;;;;;;;;;;;15.90;99.90;;;;;;5109147;28;1084;-69
2022/11/03 12:19:33;;;;;;;;;;;15.80;99.90;;;;;;5104763;28;3979;-69
2022/11/03 12:21:58;;;;;;;;;;;15.70;99.90;;;;;;5108258;28;1093;-69
2022/11/03 12:24:25;;;;;;;;;;;15.60;99.90;;;;;;5108375;28;1108;-69
2022/11/03 12:26:51;;;;;;;;;;;15.60;99.90;;;;;;5108396;28;1092;-69
2022/11/03 12:29:17;;;;;;;;;;;15.50;99.90;;;;;;5107752;28;1164;-69
2022/11/03 12:31:42;;;;;;;;;;;15.40;99.90;;;;;;5108244;28;3892;-69
2022/11/03 12:34:08;;;;;;;;;;;15.40;99.90;;;;;;5108027;28;1976;-69
2022/11/03 12:36:33;;;;;;;;;;;15.30;99.90;;;;;;5107748;28;1134;-69
2022/11/03 12:38:59;;;;;;;;;;;15.30;99.90;;;;;;5110223;28;1064;-69
2022/11/03 12:41:25;;;;;;;;;;;15.20;99.90;;;;;;5111929;28;1088;-69
2022/11/03 12:43:51;;;;;;;;;;;15.20;99.90;;;;;;5112628;28;1088;-69
2022/11/03 12:46:18;;;;;;;;;;;15.10;99.90;;;;;;5112226;28;1159;-69
2022/11/03 12:48:44;;;;;;;;;;;15.10;99.90;;;;;;5111927;28;1124;-69
2022/11/03 12:51:10;;;;;;;;;;;15.10;99.90;;;;;;5111699;28;1288;-69
2022/11/03 12:53:36;;;;;;;;;;;15.10;99.90;;;;;;5111762;28;1902;-69
2022/11/03 12:56:02;;;;;;;;;;;15.00;99.90;;;;;;5111177;28;1132;-69
2022/11/03 12:58:27;;;;;;;;;;;15.00;99.90;;;;;;5111843;28;1120;-69
2022/11/03 13:00:53;;;;;;;;;;;15.00;99.90;;;;;;5112008;28;1093;-69
2022/11/03 13:03:19;;;;;;;;;;;14.90;99.90;;;;;;5110597;28;1235;-69
2022/11/03 13:05:44;;;;;;;;;;;14.90;99.90;;;;;;5111292;28;1260;-69
2022/11/03 13:08:10;;;;;;;;;;;14.90;99.90;;;;;;5092697;28;1286;-69
2022/11/03 13:10:35;;;;;;;;;;;14.80;99.90;;;;;;5109400;28;1250;-69
2022/11/03 13:13:01;;;;;;;;;;;14.80;99.90;;;;;;5111104;28;1913;-68
2022/11/03 13:15:27;;;;;;;;;;;14.80;99.90;;;;;;5112293;28;1108;-69
2022/11/03 13:17:52;;;;;;;;;;;14.80;99.90;;;;;;5111439;28;1140;-69
2022/11/03 13:20:18;;;;;;;;;;;14.70;99.90;;;;;;5111514;28;1432;-68
2022/11/03 13:22:44;;;;;;;;;;;14.80;99.90;;;;;;5111514;28;1197;-69
2022/11/03 13:25:09;;;;;;;;;;;14.70;99.90;;;;;;5111182;28;1199;-67
2022/11/03 13:27:35;;;;;;;;;;;14.60;99.90;;;;;;5111360;28;1179;-69
2022/11/03 13:30:01;;;;;;;;;;;14.60;99.90;;;;;;5110859;28;1258;-69
2022/11/03 13:32:26;;;;;;;;;;;14.60;99.90;;;;;;5111801;28;1981;-69
2022/11/03 13:34:52;;;;;;;;;;;14.60;99.90;;;;;;5111905;28;1108;-69
2022/11/03 13:37:18;;;;;;;;;;;14.60;99.90;;;;;;5111084;28;1088;-68
2022/11/03 13:39:43;;;;;;;;;;;14.60;99.90;;;;;;5111625;28;1224;-69
2022/11/03 13:42:09;;;;;;;;;;;14.60;99.90;;;;;;5111341;28;1120;-69
2022/11/03 13:44:35;;;;;;;;;;;14.50;99.90;;;;;;5110419;28;1271;-68
2022/11/03 13:47:00;;;;;;;;;;;14.50;99.90;;;;;;5110507;28;1262;-69
2022/11/03 13:49:26;;;;;;;;;;;14.50;99.90;;;;;;5092263;28;1291;-68
2022/11/03 13:51:51;;;;;;;;;;;14.50;99.90;;;;;;5109732;28;1960;-69
2022/11/03 13:54:17;;;;;;;;;;;14.50;99.90;;;;;;5110497;28;1215;-68
2022/11/03 13:56:43;;;;;;;;;;;14.50;99.90;;;;;;5107789;28;1081;-68
2022/11/03 13:59:08;;;;;;;;;;;14.50;99.90;;;;;;5109990;28;1163;-68
2022/11/03 14:01:34;;;;;;;;;;;14.50;99.90;;;;;;5110904;28;1191;-69
2022/11/03 14:03:59;;;;;;;;;;;14.50;99.90;;;;;;5108542;28;3672;-69
2022/11/03 14:06:25;;;;;;;;;;;14.60;99.90;;;;;;5107408;28;3705;-69
2022/11/03 14:08:51;;;;;;;;;;;14.60;99.90;;;;;;5110666;28;3923;-69
2022/11/03 14:14:01;;;;;;;;;;;14.70;99.90;;;;;;5107757;28;1961;-69
2022/11/03 14:16:26;;;;;;;;;;;14.80;99.90;;;;;;5111011;28;992;-68
2022/11/03 14:18:52;;;;;;;;;;;14.80;99.90;;;;;;5110267;28;1092;-68
2022/11/03 14:21:18;;;;;;;;;;;14.80;99.90;;;;;;5097685;28;1083;-68
2022/11/03 14:23:43;;;;;;;;;;;14.70;99.90;;;;;;5108565;28;3688;-68
2022/11/03 14:26:09;;;;;;;;;;;14.60;99.90;;;;;;5085025;28;3981;-69
2022/11/03 14:28:35;;;;;;;;;;;14.60;99.90;;;;;;5108166;28;3640;-68
2022/11/03 14:31:02;;;;;;;;;;;14.50;99.90;;;;;;5108008;27;3136;-68
2022/11/03 14:33:28;;;;;;;;;;;14.40;99.90;;;;;;5102904;28;1910;-69
2022/11/03 14:35:54;;;;;;;;;;;14.40;99.90;;;;;;5107070;28;1152;-68
2022/11/03 14:38:19;;;;;;;;;;;14.30;99.90;;;;;;5104353;28;1187;-68
2022/11/03 14:43:29;;;;;;;;;;;14.20;99.90;;;;;;5105250;28;3258;-68
2022/11/03 14:45:55;;;;;;;;;;;14.20;99.90;;;;;;5106588;28;1174;-68
2022/11/03 14:48:20;;;;;;;;;;;14.20;99.90;;;;;;5109048;28;1095;-68
2022/11/03 14:50:46;;;;;;;;;;;14.10;99.90;;;;;;5103051;28;1249;-68
2022/11/03 14:53:12;;;;;;;;;;;14.10;99.90;;;;;;5109765;28;1972;-69
2022/11/03 14:55:37;;;;;;;;;;;14.10;99.90;;;;;;5092050;28;1209;-69